createdAt,value
2018-05-19T00:01:49.900Z,13.20
2018-05-19T00:04:18.102Z,13.40
2018-05-19T00:06:45.535Z,16.10
2018-05-19T00:09:13.744Z,13.80
2018-05-19T00:11:41.176Z,14.40
2018-05-19T00:14:08.611Z,13.07
2018-05-19T00:16:36.043Z,13.87
2018-05-19T00:19:03.477Z,14.17
2018-05-19T00:21:30.904Z,13.37
2018-05-19T00:23:58.386Z,12.77
2018-05-19T00:26:26.543Z,12.70
2018-05-19T00:28:53.989Z,13.60
2018-05-19T00:31:22.191Z,15.30
2018-05-19T00:33:49.622Z,12.87
2018-05-19T00:36:17.058Z,13.10
2018-05-19T00:38:45.263Z,12.63
2018-05-19T00:41:12.705Z,11.87
2018-05-19T00:43:40.913Z,13.13
2018-05-19T00:46:08.350Z,13.00
2018-05-19T00:48:35.785Z,13.00
2018-05-19T00:51:04.003Z,12.73
2018-05-19T00:53:31.439Z,14.00
2018-05-19T00:55:58.890Z,11.83
2018-05-19T00:58:26.339Z,11.33
2018-05-19T01:00:54.546Z,13.13
2018-05-19T01:03:21.983Z,12.50
2018-05-19T01:05:49.428Z,12.80
2018-05-19T01:08:17.632Z,12.97
2018-05-19T01:10:45.075Z,14.63
2018-05-19T01:13:12.512Z,13.60
2018-05-19T01:15:39.935Z,14.30
2018-05-19T01:18:07.407Z,13.90
2018-05-19T01:20:34.847Z,13.60
2018-05-19T01:23:02.291Z,12.90
2018-05-19T01:25:29.725Z,12.47
2018-05-19T01:27:57.159Z,13.27
2018-05-19T01:30:26.353Z,14.80
2018-05-19T01:32:54.537Z,12.73
2018-05-19T01:35:21.987Z,13.73
2018-05-19T01:37:49.423Z,12.17
2018-05-19T01:40:16.837Z,13.70
2018-05-19T01:42:44.275Z,13.70
2018-05-19T01:45:11.716Z,15.63
2018-05-19T01:47:39.927Z,13.57
2018-05-19T01:50:07.368Z,13.57
2018-05-19T01:52:34.800Z,14.40
2018-05-19T01:55:02.992Z,13.73
2018-05-19T01:57:30.469Z,15.63
2018-05-19T01:59:57.895Z,14.00
2018-05-19T02:02:26.096Z,13.70
2018-05-19T02:04:53.519Z,13.63
2018-05-19T02:07:21.718Z,15.17
2018-05-19T02:09:49.150Z,14.83
2018-05-19T02:12:16.617Z,13.27
2018-05-19T02:14:45.791Z,14.43
2018-05-19T02:17:13.226Z,14.83
2018-05-19T02:19:40.654Z,12.70
2018-05-19T02:22:08.091Z,14.80
2018-05-19T02:24:35.522Z,13.67
2018-05-19T02:27:02.951Z,15.33
2018-05-19T02:29:31.355Z,13.90
2018-05-19T02:31:58.813Z,13.80
2018-05-19T02:34:26.241Z,14.10
2018-05-19T02:36:53.687Z,14.07
2018-05-19T02:39:21.116Z,14.10
2018-05-19T02:41:48.545Z,14.67
2018-05-19T02:44:15.977Z,13.73
2018-05-19T02:46:43.415Z,13.80
2018-05-19T02:49:10.847Z,12.43
2018-05-19T02:51:38.282Z,13.47
2018-05-19T02:54:06.479Z,15.10
2018-05-19T02:56:34.939Z,15.97
2018-05-19T02:59:03.155Z,15.27
2018-05-19T03:01:30.589Z,13.87
2018-05-19T03:03:58.014Z,13.10
2018-05-19T03:06:25.447Z,13.40
2018-05-19T03:08:52.904Z,14.13
2018-05-19T03:11:20.335Z,13.47
2018-05-19T03:13:47.761Z,13.00
2018-05-19T03:16:15.973Z,13.00
2018-05-19T03:18:44.408Z,13.77
2018-05-19T03:21:12.611Z,13.00
2018-05-19T03:23:40.051Z,13.37
2018-05-19T03:26:08.255Z,14.33
2018-05-19T03:28:35.691Z,14.43
2018-05-19T03:31:03.123Z,14.10
2018-05-19T03:33:30.562Z,12.70
2018-05-19T03:35:58.024Z,12.40
2018-05-19T03:38:25.438Z,14.87
2018-05-19T03:40:52.871Z,13.47
2018-05-19T03:43:20.315Z,13.63
2018-05-19T03:45:48.514Z,12.60
2018-05-19T03:48:15.948Z,13.83
2018-05-19T03:50:44.158Z,13.40
2018-05-19T03:53:11.585Z,14.27
2018-05-19T03:55:39.020Z,14.00
2018-05-19T04:01:17.815Z,13.73
2018-05-19T04:03:45.256Z,12.77
2018-05-19T04:06:12.787Z,14.43
2018-05-19T04:08:40.222Z,13.40
2018-05-19T04:11:07.645Z,12.90
2018-05-19T04:13:35.093Z,13.73
2018-05-19T04:16:02.518Z,14.70
2018-05-19T04:18:30.713Z,13.50
2018-05-19T04:20:58.166Z,11.90
2018-05-19T04:23:25.599Z,13.60
2018-05-19T04:25:53.035Z,13.20
2018-05-19T04:28:20.466Z,14.13
2018-05-19T04:30:47.978Z,13.87
2018-05-19T04:33:16.175Z,14.27
2018-05-19T04:35:43.620Z,14.33
2018-05-19T04:38:11.830Z,16.37
2018-05-19T04:40:39.337Z,14.83
2018-05-19T04:43:06.713Z,14.67
2018-05-19T04:45:34.150Z,15.13
2018-05-19T04:48:01.592Z,14.73
2018-05-19T04:50:29.032Z,16.60
2018-05-19T04:52:56.468Z,15.70
2018-05-19T04:55:23.911Z,16.77
2018-05-19T04:57:51.447Z,14.80
2018-05-19T05:00:19.688Z,16.20
2018-05-19T05:02:47.914Z,14.40
2018-05-19T05:05:17.103Z,16.80
2018-05-19T05:07:45.367Z,15.87
2018-05-19T05:10:13.650Z,16.50
2018-05-19T05:12:41.848Z,14.90
2018-05-19T05:15:09.296Z,15.03
2018-05-19T05:17:36.739Z,17.23
2018-05-19T05:20:04.959Z,17.57
2018-05-19T05:22:33.381Z,18.47
2018-05-19T05:25:00.832Z,17.73
2018-05-19T05:27:28.273Z,16.73
2018-05-19T05:29:55.710Z,18.90
2018-05-19T05:32:23.145Z,18.63
2018-05-19T05:34:50.587Z,17.93
2018-05-19T05:37:18.791Z,18.17
2018-05-19T05:39:46.231Z,18.17
2018-05-19T05:42:13.668Z,19.03
2018-05-19T05:44:41.868Z,18.73
2018-05-19T05:47:09.304Z,17.20
2018-05-19T05:49:37.508Z,17.73
2018-05-19T05:52:04.946Z,21.03
2018-05-19T05:54:32.385Z,18.00
2018-05-19T05:57:00.697Z,16.70
2018-05-19T05:59:28.141Z,17.10
2018-05-19T06:01:55.589Z,17.90
2018-05-19T06:04:23.852Z,17.80
2018-05-19T06:06:52.055Z,18.00
2018-05-19T06:09:19.485Z,15.77
2018-05-19T06:11:47.700Z,18.30
2018-05-19T06:14:15.214Z,19.30
2018-05-19T06:16:42.645Z,17.30
2018-05-19T06:19:10.127Z,18.43
2018-05-19T06:21:38.356Z,16.13
2018-05-19T06:24:05.854Z,18.03
2018-05-19T06:26:33.302Z,19.00
2018-05-19T06:29:00.783Z,18.60
2018-05-19T06:31:28.999Z,18.70
2018-05-19T06:33:56.509Z,20.73
2018-05-19T06:36:23.972Z,17.40
2018-05-19T06:38:54.194Z,16.23
2018-05-19T06:41:21.618Z,18.03
2018-05-19T06:43:49.102Z,17.47
2018-05-19T06:46:16.549Z,18.17
2018-05-19T06:48:43.995Z,16.93
2018-05-19T06:51:11.434Z,17.53
2018-05-19T06:53:38.873Z,19.00
2018-05-19T06:56:06.332Z,17.70
2018-05-19T06:58:33.795Z,18.97
2018-05-19T07:01:01.246Z,17.70
2018-05-19T07:03:28.683Z,17.07
2018-05-19T07:05:56.117Z,18.30
2018-05-19T07:08:23.562Z,15.97
2018-05-19T07:10:51.027Z,16.87
2018-05-19T07:13:18.476Z,17.77
2018-05-19T07:15:45.918Z,16.93
2018-05-19T07:18:13.410Z,17.80
2018-05-19T07:20:41.616Z,17.10
2018-05-19T07:23:09.059Z,16.77
2018-05-19T07:25:37.267Z,15.90
2018-05-19T07:28:04.735Z,17.20
2018-05-19T07:30:32.183Z,17.73
2018-05-19T07:32:59.627Z,15.50
2018-05-19T07:35:27.050Z,15.00
2018-05-19T07:37:55.265Z,15.07
2018-05-19T07:40:22.708Z,13.90
2018-05-19T07:42:50.141Z,14.47
2018-05-19T07:45:18.413Z,12.90
2018-05-19T07:47:46.615Z,14.47
2018-05-19T07:50:14.062Z,13.47
2018-05-19T07:52:41.496Z,12.20
2018-05-19T07:55:09.702Z,12.97
2018-05-19T07:57:37.136Z,10.60
2018-05-19T08:00:05.348Z,11.50
2018-05-19T08:02:32.779Z,10.07
2018-05-19T08:05:00.219Z,11.50
2018-05-19T08:07:28.427Z,8.70
2018-05-19T08:09:55.866Z,10.50
2018-05-19T08:12:24.135Z,11.10
2018-05-19T08:14:52.350Z,9.97
2018-05-19T08:17:19.787Z,10.80
2018-05-19T08:19:47.226Z,9.60
2018-05-19T08:22:15.444Z,9.90
2018-05-19T08:24:42.892Z,10.30
2018-05-19T08:27:10.318Z,9.20
2018-05-19T08:29:38.526Z,10.07
2018-05-19T08:32:05.967Z,9.33
2018-05-19T08:34:33.411Z,9.60
2018-05-19T08:37:01.613Z,9.07
2018-05-19T08:39:29.048Z,9.30
2018-05-19T08:41:56.479Z,9.17
2018-05-19T08:44:23.910Z,9.30
2018-05-19T08:46:51.347Z,9.30
2018-05-19T08:49:18.790Z,8.83
2018-05-19T08:51:46.231Z,9.67
2018-05-19T08:54:13.662Z,8.67
2018-05-19T08:56:41.874Z,8.13
2018-05-19T08:59:09.302Z,8.57
2018-05-19T09:01:37.519Z,8.90
2018-05-19T09:04:04.954Z,9.00
2018-05-19T09:06:32.439Z,9.13
2018-05-19T09:09:02.607Z,8.67
2018-05-19T09:11:30.047Z,9.30
2018-05-19T09:13:57.474Z,8.60
2018-05-19T09:16:24.926Z,8.47
2018-05-19T09:18:52.364Z,10.27
2018-05-19T09:21:19.803Z,8.93
2018-05-19T09:23:48.012Z,10.23
2018-05-19T09:26:15.451Z,9.90
2018-05-19T09:28:42.878Z,9.80
2018-05-19T09:31:10.315Z,8.73
2018-05-19T09:33:37.754Z,9.33
2018-05-19T09:36:05.197Z,9.40
2018-05-19T09:38:32.627Z,10.30
2018-05-19T09:41:00.835Z,9.60
2018-05-19T09:43:28.266Z,10.20
2018-05-19T09:45:55.702Z,9.80
2018-05-19T09:48:23.917Z,10.37
2018-05-19T09:50:51.346Z,10.40
2018-05-19T09:53:18.786Z,8.67
2018-05-19T09:55:46.223Z,8.50
2018-05-19T09:58:13.704Z,9.30
2018-05-19T10:00:41.904Z,10.07
2018-05-19T10:03:11.079Z,8.67
2018-05-19T10:05:39.277Z,9.60
2018-05-19T10:08:06.723Z,9.27
2018-05-19T10:10:34.920Z,10.23
2018-05-19T10:13:02.361Z,10.47
2018-05-19T10:15:29.799Z,9.90
2018-05-19T10:17:57.998Z,10.20
2018-05-19T10:20:25.431Z,9.27
2018-05-19T10:22:53.747Z,8.63
2018-05-19T10:25:21.097Z,10.00
2018-05-19T10:27:48.534Z,10.20
2018-05-19T10:30:15.973Z,11.40
2018-05-19T10:32:44.185Z,11.70
2018-05-19T10:35:11.624Z,9.97
2018-05-19T10:37:39.821Z,8.60
2018-05-19T10:40:07.252Z,8.63
2018-05-19T10:42:36.435Z,10.47
2018-05-19T10:45:05.382Z,9.33
2018-05-19T10:47:32.813Z,10.17
2018-05-19T10:50:00.251Z,9.27
2018-05-19T10:52:28.459Z,9.57
2018-05-19T10:54:55.899Z,9.70
2018-05-19T10:57:23.411Z,8.47
2018-05-19T10:59:50.905Z,9.13
2018-05-19T11:02:19.091Z,11.23
2018-05-19T11:04:46.527Z,9.00
2018-05-19T11:07:14.995Z,8.63
2018-05-19T11:09:42.418Z,9.23
2018-05-19T11:12:09.846Z,9.47
2018-05-19T11:14:37.285Z,8.90
2018-05-19T11:17:05.489Z,8.97
2018-05-19T11:19:32.935Z,7.80
2018-05-19T11:22:00.371Z,8.90
2018-05-19T11:24:28.580Z,7.50
2018-05-19T11:26:56.023Z,8.20
2018-05-19T11:29:23.459Z,8.07
2018-05-19T11:31:51.667Z,9.03
2018-05-19T11:34:19.101Z,10.00
2018-05-19T11:36:46.538Z,8.77
2018-05-19T11:39:14.746Z,9.40
2018-05-19T11:41:42.191Z,10.33
2018-05-19T11:44:09.620Z,7.40
2018-05-19T11:46:37.054Z,9.63
2018-05-19T11:49:04.483Z,8.43
2018-05-19T11:51:31.936Z,9.40
2018-05-19T11:53:59.379Z,9.20
2018-05-19T11:56:26.814Z,7.20
2018-05-19T11:58:55.017Z,7.60
2018-05-19T12:01:22.450Z,7.53
2018-05-19T12:03:50.660Z,7.53
2018-05-19T12:06:18.118Z,8.60
2018-05-19T12:08:45.540Z,9.00
2018-05-19T12:11:13.747Z,8.63
2018-05-19T12:13:41.178Z,8.20
2018-05-19T12:16:09.382Z,8.63
2018-05-19T12:18:36.822Z,7.70
2018-05-19T12:21:04.269Z,7.80
2018-05-19T12:23:32.463Z,7.63
2018-05-19T12:25:59.899Z,8.33
2018-05-19T12:28:28.104Z,7.43
2018-05-19T12:30:55.533Z,7.33
2018-05-19T12:33:22.966Z,7.70
2018-05-19T12:35:50.415Z,7.90
2018-05-19T12:38:17.857Z,8.60
2018-05-19T12:40:45.286Z,8.07
2018-05-19T12:43:12.731Z,7.00
2018-05-19T12:45:40.163Z,6.53
2018-05-19T12:48:08.376Z,6.60
2018-05-19T12:50:35.832Z,5.67
2018-05-19T12:53:03.354Z,5.73
2018-05-19T12:55:31.557Z,6.63
2018-05-19T12:57:58.999Z,7.50
2018-05-19T13:00:26.426Z,6.57
2018-05-19T13:02:53.865Z,6.30
2018-05-19T13:05:21.293Z,8.47
2018-05-19T13:07:48.735Z,7.57
2018-05-19T13:10:16.176Z,7.47
2018-05-19T13:12:44.383Z,7.10
2018-05-19T13:15:11.818Z,7.10
2018-05-19T13:17:39.250Z,7.13
2018-05-19T13:20:07.487Z,6.00
2018-05-19T13:22:34.929Z,7.00
2018-05-19T13:25:02.371Z,6.73
2018-05-19T13:27:29.811Z,7.03
2018-05-19T13:29:58.019Z,7.20
2018-05-19T13:32:25.451Z,8.60
2018-05-19T13:34:53.655Z,7.47
2018-05-19T13:37:22.092Z,8.63
2018-05-19T13:39:50.293Z,7.40
2018-05-19T13:42:17.719Z,8.27
2018-05-19T13:44:45.918Z,6.97
2018-05-19T13:47:13.355Z,8.63
2018-05-19T13:49:41.549Z,7.83
2018-05-19T13:52:09.008Z,9.17
2018-05-19T13:54:37.187Z,6.30
2018-05-19T13:57:05.639Z,6.63
2018-05-19T13:59:33.838Z,8.93
2018-05-19T14:02:01.276Z,8.07
2018-05-19T14:04:29.500Z,7.10
2018-05-19T14:06:56.917Z,7.10
2018-05-19T14:09:25.120Z,7.03
2018-05-19T14:11:52.577Z,8.07
2018-05-19T14:14:20.018Z,7.13
2018-05-19T14:16:47.442Z,6.23
2018-05-19T14:19:15.650Z,7.10
2018-05-19T14:21:43.075Z,7.00
2018-05-19T14:24:11.276Z,5.50
2018-05-19T14:26:38.706Z,5.20
2018-05-19T14:29:06.912Z,5.23
2018-05-19T14:31:34.387Z,5.87
2018-05-19T14:34:01.820Z,6.17
2018-05-19T14:36:29.259Z,4.73
2018-05-19T14:38:57.456Z,6.00
2018-05-19T14:41:25.654Z,6.30
2018-05-19T14:43:53.081Z,5.90
2018-05-19T14:46:20.529Z,6.83
2018-05-19T14:48:48.730Z,6.10
2018-05-19T14:51:16.202Z,7.40
2018-05-19T14:53:43.639Z,6.40
2018-05-19T14:56:11.066Z,5.47
2018-05-19T14:58:39.272Z,5.00
2018-05-19T15:01:06.711Z,5.67
2018-05-19T15:03:34.922Z,5.33
2018-05-19T15:06:02.366Z,6.27
2018-05-19T15:08:29.800Z,6.97
2018-05-19T15:10:58.004Z,5.90
2018-05-19T15:13:25.505Z,5.30
2018-05-19T15:15:53.022Z,5.83
2018-05-19T15:18:20.437Z,6.70
2018-05-19T15:20:48.703Z,6.20
2018-05-19T15:23:16.187Z,6.10
2018-05-19T15:25:43.580Z,5.20
2018-05-19T15:28:11.006Z,5.50
2018-05-19T15:30:38.543Z,5.33
2018-05-19T15:33:06.763Z,6.17
2018-05-19T15:35:34.177Z,5.87
2018-05-19T15:38:02.442Z,6.37
2018-05-19T15:40:29.872Z,5.60
2018-05-19T15:42:57.323Z,5.90
2018-05-19T15:45:24.750Z,6.57
2018-05-19T15:47:52.204Z,5.63
2018-05-19T15:50:19.629Z,5.13
2018-05-19T15:52:47.910Z,5.47
2018-05-19T15:55:16.175Z,6.80
2018-05-19T15:57:43.651Z,7.23
2018-05-19T16:00:11.071Z,6.57
2018-05-19T16:02:38.513Z,8.80
2018-05-19T16:05:05.957Z,7.97
2018-05-19T16:07:33.402Z,7.60
2018-05-19T16:10:00.927Z,5.33
2018-05-19T16:12:29.210Z,7.00
2018-05-19T16:14:57.428Z,5.63
2018-05-19T16:17:24.865Z,6.90
2018-05-19T16:19:52.303Z,5.33
2018-05-19T16:22:20.508Z,5.60
2018-05-19T16:24:48.018Z,6.30
2018-05-19T16:27:15.581Z,6.90
2018-05-19T16:29:43.690Z,7.03
2018-05-19T16:32:11.119Z,6.07
2018-05-19T16:34:39.313Z,5.77
2018-05-19T16:37:06.829Z,6.80
2018-05-19T16:39:34.303Z,9.20
2018-05-19T16:42:01.770Z,6.23
2018-05-19T16:44:30.922Z,7.20
2018-05-19T16:46:58.350Z,9.93
2018-05-19T16:49:25.800Z,10.50
2018-05-19T16:51:53.238Z,13.33
2018-05-19T16:54:20.745Z,9.20
2018-05-19T16:56:48.175Z,7.67
2018-05-19T16:59:15.611Z,7.00
2018-05-19T17:01:43.049Z,6.70
2018-05-19T17:04:10.486Z,7.50
2018-05-19T17:06:37.974Z,7.60
2018-05-19T17:09:05.407Z,7.30
2018-05-19T17:11:32.903Z,6.57
2018-05-19T17:14:01.175Z,6.43
2018-05-19T17:16:29.376Z,6.53
2018-05-19T17:18:56.823Z,6.93
2018-05-19T17:21:25.074Z,6.00
2018-05-19T17:23:54.018Z,7.23
2018-05-19T17:26:21.583Z,6.70
2018-05-19T17:28:49.020Z,6.63
2018-05-19T17:31:16.448Z,6.70
2018-05-19T17:33:44.650Z,8.30
2018-05-19T17:36:12.165Z,6.53
2018-05-19T17:38:40.450Z,6.90
2018-05-19T17:41:07.892Z,5.87
2018-05-19T17:43:35.403Z,6.80
2018-05-19T17:46:03.958Z,6.30
2018-05-19T17:48:31.325Z,6.87
2018-05-19T17:50:59.606Z,5.90
2018-05-19T17:53:27.165Z,5.90
2018-05-19T17:55:54.608Z,6.67
2018-05-19T17:58:22.831Z,6.10
2018-05-19T18:00:50.335Z,6.00
2018-05-19T18:03:18.534Z,6.50
2018-05-19T18:05:45.975Z,5.50
2018-05-19T18:08:14.238Z,5.73
2018-05-19T18:10:42.901Z,6.97
2018-05-19T18:13:11.132Z,5.80
2018-05-19T18:15:38.662Z,7.83
2018-05-19T18:18:06.947Z,6.63
2018-05-19T18:20:35.157Z,6.47
2018-05-19T18:23:02.589Z,6.63
2018-05-19T18:25:30.850Z,6.17
2018-05-19T18:27:59.050Z,5.90
2018-05-19T18:30:26.491Z,6.73
2018-05-19T18:32:56.168Z,5.70
2018-05-19T18:35:23.614Z,7.00
2018-05-19T18:37:51.054Z,6.13
2018-05-19T18:40:18.486Z,6.03
2018-05-19T18:42:45.931Z,5.80
2018-05-19T18:45:14.147Z,6.73
2018-05-19T18:47:41.644Z,6.83
2018-05-19T18:50:09.090Z,6.17
2018-05-19T18:52:48.451Z,6.80
2018-05-19T18:55:17.484Z,6.57
2018-05-19T18:57:44.976Z,6.50
2018-05-19T19:00:12.376Z,5.40
2018-05-19T19:02:40.639Z,7.40
2018-05-19T19:05:08.909Z,6.40
2018-05-19T19:07:37.102Z,6.53
2018-05-19T19:10:04.533Z,6.57
2018-05-19T19:12:32.016Z,6.97
2018-05-19T19:14:59.515Z,7.33
2018-05-19T19:17:27.015Z,6.00
2018-05-19T19:19:55.343Z,6.97
2018-05-19T19:22:22.844Z,5.90
2018-05-19T19:24:50.479Z,6.60
2018-05-19T19:27:17.927Z,6.17
2018-05-19T19:29:45.456Z,6.07
2018-05-19T19:32:12.968Z,6.00
2018-05-19T19:34:42.398Z,5.00
2018-05-19T19:37:09.907Z,6.60
2018-05-19T19:39:37.397Z,5.83
2018-05-19T19:42:04.831Z,5.87
2018-05-19T19:44:32.298Z,6.70
2018-05-19T19:46:59.735Z,5.97
2018-05-19T19:49:27.176Z,7.10
2018-05-19T19:51:54.734Z,6.57
2018-05-19T19:54:22.200Z,4.90
2018-05-19T19:56:49.651Z,6.23
2018-05-19T19:59:17.111Z,6.80
2018-05-19T20:01:44.532Z,7.13
2018-05-19T20:04:12.867Z,6.77
2018-05-19T20:06:40.309Z,7.43
2018-05-19T20:09:07.734Z,7.83
2018-05-19T20:11:35.179Z,7.00
2018-05-19T20:14:03.498Z,6.10
2018-05-19T20:16:30.894Z,6.70
2018-05-19T20:18:58.326Z,7.33
2018-05-19T20:21:25.815Z,6.77
2018-05-19T20:23:53.248Z,7.50
2018-05-19T20:26:20.718Z,7.77
2018-05-19T20:28:48.167Z,7.07
2018-05-19T20:31:15.607Z,7.17
2018-05-19T20:33:43.048Z,7.50
2018-05-19T20:36:10.574Z,10.10
2018-05-19T20:38:38.775Z,6.83
2018-05-19T20:41:06.234Z,7.60
2018-05-19T20:43:33.668Z,8.50
2018-05-19T20:46:01.868Z,6.50
2018-05-19T20:48:29.315Z,8.23
2018-05-19T20:50:56.752Z,8.30
2018-05-19T20:53:24.953Z,8.10
2018-05-19T20:55:52.383Z,7.30
2018-05-19T20:58:20.578Z,8.20
2018-05-19T21:00:48.011Z,7.10
2018-05-19T21:03:16.219Z,7.50
2018-05-19T21:05:43.695Z,7.90
2018-05-19T21:08:11.143Z,7.87
2018-05-19T21:10:38.582Z,8.20
2018-05-19T21:13:06.023Z,7.27
2018-05-19T21:15:34.224Z,7.20
2018-05-19T21:18:01.654Z,7.87
2018-05-19T21:20:29.100Z,7.97
2018-05-19T21:22:58.287Z,7.10
2018-05-19T21:25:25.731Z,9.27
2018-05-19T21:27:53.175Z,8.00
2018-05-19T21:30:20.607Z,8.33
2018-05-19T21:32:48.034Z,8.93
2018-05-19T21:35:16.244Z,7.07
2018-05-19T21:37:43.674Z,7.77
2018-05-19T21:40:11.162Z,7.40
2018-05-19T21:42:40.298Z,8.90
2018-05-19T21:45:07.738Z,7.87
2018-05-19T21:47:35.175Z,9.20
2018-05-19T21:50:02.639Z,9.10
2018-05-19T21:52:30.064Z,8.43
2018-05-19T21:54:57.538Z,8.37
2018-05-19T21:57:25.002Z,8.03
2018-05-19T21:59:52.430Z,8.13
2018-05-19T22:02:19.869Z,7.90
2018-05-19T22:04:47.294Z,9.43
2018-05-19T22:07:14.727Z,8.60
2018-05-19T22:09:42.158Z,8.00
2018-05-19T22:12:09.595Z,8.27
2018-05-19T22:14:37.797Z,7.50
2018-05-19T22:17:05.230Z,9.07
2018-05-19T22:19:33.430Z,8.33
2018-05-19T22:22:00.872Z,8.20
2018-05-19T22:24:28.306Z,8.97
2018-05-19T22:26:56.582Z,8.93
2018-05-19T22:29:24.033Z,8.30
2018-05-19T22:31:51.466Z,7.97
2018-05-19T22:34:19.006Z,7.93
2018-05-19T22:36:46.435Z,7.30
2018-05-19T22:39:13.866Z,8.13
2018-05-19T22:41:41.301Z,10.43
2018-05-19T22:44:08.753Z,9.17
2018-05-19T22:46:36.248Z,7.10
2018-05-19T22:49:03.926Z,9.43
2018-05-19T22:51:32.106Z,9.90
2018-05-19T22:53:59.558Z,9.37
2018-05-19T22:56:27.086Z,8.30
2018-05-19T22:58:54.547Z,9.40
2018-05-19T23:01:21.978Z,9.03
2018-05-19T23:03:49.419Z,8.10
2018-05-19T23:06:16.932Z,10.10
2018-05-19T23:08:45.130Z,10.70
2018-05-19T23:11:12.668Z,9.00
2018-05-19T23:13:40.864Z,9.37
2018-05-19T23:16:08.302Z,9.20
2018-05-19T23:18:36.502Z,10.33
2018-05-19T23:21:04.953Z,9.60
2018-05-19T23:23:33.146Z,9.67
2018-05-19T23:26:00.608Z,9.03
2018-05-19T23:28:28.799Z,9.83
2018-05-19T23:30:56.243Z,11.30
2018-05-19T23:33:23.679Z,11.13
2018-05-19T23:35:51.894Z,9.47
2018-05-19T23:38:19.331Z,10.03
2018-05-19T23:40:46.766Z,9.57
2018-05-19T23:43:14.959Z,9.87
2018-05-19T23:45:42.402Z,11.53
2018-05-19T23:48:10.609Z,10.93
2018-05-19T23:50:38.051Z,10.93
2018-05-19T23:53:05.478Z,9.53
2018-05-19T23:55:33.673Z,9.10
2018-05-19T23:58:01.107Z,10.40
